createdAt,value
2024-05-09T00:00:01.127Z,177.93
2024-05-09T00:01:00.798Z,177.71
2024-05-09T00:02:00.824Z,178.17
2024-05-09T00:03:00.884Z,177.83
2024-05-09T00:04:00.848Z,178.38
2024-05-09T00:05:00.943Z,178.54
2024-05-09T00:06:01.029Z,178.80
2024-05-09T00:07:00.792Z,178.02
2024-05-09T00:08:00.957Z,177.56
2024-05-09T00:09:00.786Z,178.67
2024-05-09T00:10:00.788Z,177.85
2024-05-09T00:11:00.872Z,178.15
2024-05-09T00:12:00.930Z,178.90
2024-05-09T00:13:00.788Z,178.45
2024-05-09T00:14:00.882Z,178.15
2024-05-09T00:15:01.262Z,178.97
2024-05-09T00:16:00.810Z,177.92
2024-05-09T00:17:00.846Z,178.55
2024-05-09T00:18:01.324Z,178.39
2024-05-09T00:19:00.916Z,177.59
2024-05-09T00:20:00.832Z,178.85
2024-05-09T00:21:00.935Z,178.19
2024-05-09T00:22:00.799Z,176.76
2024-05-09T00:23:00.833Z,177.73
2024-05-09T00:24:00.797Z,178.75
2024-05-09T00:25:00.805Z,177.00
2024-05-09T00:26:00.911Z,177.25
2024-05-09T00:27:00.809Z,177.57
2024-05-09T00:28:00.929Z,178.11
2024-05-09T00:29:00.852Z,178.07
2024-05-09T00:30:01.178Z,177.11
2024-05-09T00:31:00.820Z,176.71
2024-05-09T00:32:00.890Z,176.57
2024-05-09T00:33:01.117Z,176.64
2024-05-09T00:34:01.207Z,177.44
2024-05-09T00:35:01.060Z,178.64
2024-05-09T00:36:00.814Z,178.19
2024-05-09T00:37:00.824Z,176.71
2024-05-09T00:38:01.101Z,176.06
2024-05-09T00:39:00.828Z,177.41
2024-05-09T00:40:00.830Z,177.69
2024-05-09T00:41:00.989Z,177.26
2024-05-09T00:42:00.830Z,176.90
2024-05-09T00:43:00.817Z,176.96
2024-05-09T00:44:00.842Z,176.58
2024-05-09T00:45:01.192Z,177.20
2024-05-09T00:46:00.867Z,176.59
2024-05-09T00:47:00.908Z,175.70
2024-05-09T00:48:01.222Z,176.91
2024-05-09T00:49:00.890Z,177.34
2024-05-09T00:50:00.871Z,177.38
2024-05-09T00:51:00.917Z,176.92
2024-05-09T00:52:00.850Z,177.22
2024-05-09T00:53:00.890Z,176.12
2024-05-09T00:54:00.843Z,175.52
2024-05-09T00:55:00.851Z,177.19
2024-05-09T00:56:00.889Z,177.07
2024-05-09T00:57:00.853Z,176.08
2024-05-09T00:58:00.878Z,177.91
2024-05-09T00:59:00.925Z,177.99
2024-05-09T01:00:01.309Z,177.80
2024-05-09T01:01:00.899Z,177.54
2024-05-09T01:02:00.967Z,177.29
2024-05-09T01:03:01.053Z,174.95
2024-05-09T01:04:00.936Z,177.80
2024-05-09T01:05:00.990Z,176.52
2024-05-09T01:06:00.959Z,178.85
2024-05-09T01:07:00.957Z,176.75
2024-05-09T01:08:01.133Z,177.62
2024-05-09T01:09:01.014Z,176.37
2024-05-09T01:10:01.048Z,175.97
2024-05-09T01:11:01.182Z,175.89
2024-05-09T01:12:01.223Z,177.54
2024-05-09T01:13:01.168Z,175.68
2024-05-09T01:14:01.263Z,176.73
2024-05-09T01:15:01.227Z,176.33
2024-05-09T01:16:01.337Z,178.20
2024-05-09T01:17:01.326Z,175.16
2024-05-09T01:18:01.678Z,176.04
2024-05-09T01:19:01.508Z,176.59
2024-05-09T01:20:01.454Z,176.39
2024-05-09T01:21:01.535Z,175.32
2024-05-09T01:22:01.513Z,176.79
2024-05-09T01:23:01.598Z,175.82
2024-05-09T01:24:01.592Z,175.47
2024-05-09T01:25:01.702Z,175.75
2024-05-09T01:26:01.719Z,176.25
2024-05-09T01:27:01.713Z,176.11
2024-05-09T01:28:01.772Z,176.75
2024-05-09T01:29:01.902Z,174.18
2024-05-09T01:30:01.864Z,176.38
2024-05-09T01:31:01.870Z,176.27
2024-05-09T01:32:02.024Z,175.70
2024-05-09T01:33:02.212Z,175.74
2024-05-09T01:34:02.050Z,176.45
2024-05-09T01:35:02.094Z,175.52
2024-05-09T01:36:02.066Z,176.27
2024-05-09T01:37:02.086Z,175.12
2024-05-09T01:38:02.362Z,175.91
2024-05-09T01:39:02.156Z,174.29
2024-05-09T01:40:02.210Z,175.43
2024-05-09T01:41:02.364Z,174.62
2024-05-09T01:42:02.249Z,174.19
2024-05-09T01:43:02.285Z,176.16
2024-05-09T01:44:02.374Z,174.21
2024-05-09T01:45:02.351Z,174.60
2024-05-09T01:46:02.392Z,175.84
2024-05-09T01:47:02.494Z,176.41
2024-05-09T01:48:03.050Z,175.68
2024-05-09T01:49:02.554Z,174.68
2024-05-09T01:50:03.309Z,174.48
2024-05-09T01:51:02.607Z,174.05
2024-05-09T01:52:02.630Z,175.27
2024-05-09T01:53:02.646Z,174.07
2024-05-09T01:54:02.651Z,174.49
2024-05-09T01:55:05.843Z,174.91
2024-05-09T01:56:02.728Z,174.96
2024-05-09T01:57:02.714Z,175.18
2024-05-09T01:58:02.698Z,175.18
2024-05-09T01:59:02.729Z,174.38
2024-05-09T02:00:03.007Z,174.27
2024-05-09T02:01:02.749Z,173.98
2024-05-09T02:02:02.842Z,175.62
2024-05-09T02:03:02.913Z,174.95
2024-05-09T02:04:03.076Z,174.63
2024-05-09T02:05:02.909Z,174.86
2024-05-09T02:06:02.886Z,174.74
2024-05-09T02:07:02.715Z,174.82
2024-05-09T02:08:02.755Z,175.84
2024-05-09T02:09:02.713Z,173.64
2024-05-09T02:10:06.493Z,175.44
2024-05-09T02:11:03.960Z,175.49
2024-05-09T02:12:02.848Z,175.58
2024-05-09T02:13:02.733Z,175.87
2024-05-09T02:14:02.852Z,174.87
2024-05-09T02:15:02.723Z,173.91
2024-05-09T02:16:02.741Z,173.69
2024-05-09T02:17:02.769Z,175.74
2024-05-09T02:18:02.849Z,173.53
2024-05-09T02:19:02.889Z,174.21
2024-05-09T02:20:02.914Z,173.85
2024-05-09T02:21:02.807Z,174.60
2024-05-09T02:22:02.753Z,173.07
2024-05-09T02:23:02.906Z,174.79
2024-05-09T02:24:02.736Z,174.00
2024-05-09T02:25:02.734Z,173.32
2024-05-09T02:26:02.796Z,174.00
2024-05-09T02:27:02.746Z,172.66
2024-05-09T02:28:02.788Z,174.72
2024-05-09T02:29:02.844Z,172.69
2024-05-09T02:30:03.606Z,173.12
2024-05-09T02:31:02.885Z,173.88
2024-05-09T02:32:02.990Z,171.74
2024-05-09T02:33:03.194Z,174.61
2024-05-09T02:34:03.355Z,171.99
2024-05-09T02:35:03.171Z,173.03
2024-05-09T02:36:03.077Z,172.25
2024-05-09T02:37:03.117Z,173.65
2024-05-09T02:38:03.345Z,173.82
2024-05-09T02:39:03.185Z,172.32
2024-05-09T02:40:03.435Z,172.71
2024-05-09T02:41:03.269Z,172.87
2024-05-09T02:42:03.284Z,171.87
2024-05-09T02:43:03.324Z,171.63
2024-05-09T02:44:03.384Z,172.52
2024-05-09T02:45:03.389Z,172.59
2024-05-09T02:46:03.432Z,172.80
2024-05-09T02:47:03.527Z,172.84
2024-05-09T02:48:03.762Z,171.55
2024-05-09T02:49:03.634Z,172.26
2024-05-09T02:50:05.889Z,171.52
2024-05-09T02:51:03.908Z,171.94
2024-05-09T02:52:03.722Z,171.57
2024-05-09T02:53:03.792Z,170.81
2024-05-09T02:54:03.788Z,171.33
2024-05-09T02:55:03.852Z,172.39
2024-05-09T02:56:03.911Z,172.99
2024-05-09T02:57:03.942Z,171.61
2024-05-09T02:58:03.976Z,172.82
2024-05-09T02:59:04.006Z,171.02
2024-05-09T03:00:06.208Z,172.34
2024-05-09T03:01:04.038Z,173.77
2024-05-09T03:02:04.183Z,173.11
2024-05-09T03:03:04.301Z,172.95
2024-05-09T03:04:04.111Z,173.35
2024-05-09T03:05:04.101Z,171.84
2024-05-09T03:06:04.013Z,171.64
2024-05-09T03:07:04.034Z,172.04
2024-05-09T03:08:04.239Z,171.98
2024-05-09T03:09:04.033Z,170.52
2024-05-09T03:10:05.728Z,171.43
2024-05-09T03:11:04.096Z,171.50
2024-05-09T03:12:04.120Z,171.54
2024-05-09T03:13:04.023Z,171.70
2024-05-09T03:14:04.089Z,171.97
2024-05-09T03:15:04.025Z,171.34
2024-05-09T03:16:04.044Z,171.39
2024-05-09T03:17:04.082Z,171.80
2024-05-09T03:18:04.204Z,171.94
2024-05-09T03:19:04.155Z,170.20
2024-05-09T03:20:05.245Z,170.97
2024-05-09T03:21:04.214Z,171.02
2024-05-09T03:22:04.037Z,171.29
2024-05-09T03:23:05.265Z,171.02
2024-05-09T03:24:04.036Z,172.68
2024-05-09T03:25:04.046Z,171.30
2024-05-09T03:26:06.082Z,171.32
2024-05-09T03:27:04.045Z,170.55
2024-05-09T03:28:04.122Z,171.71
2024-05-09T03:29:04.103Z,170.65
2024-05-09T03:30:07.212Z,171.75
2024-05-09T03:31:04.047Z,171.91
2024-05-09T03:32:04.196Z,172.17
2024-05-09T03:33:04.299Z,171.48
2024-05-09T03:34:04.242Z,171.12
2024-05-09T03:35:04.121Z,171.40
2024-05-09T03:36:05.049Z,170.69
2024-05-09T03:37:04.058Z,172.11
2024-05-09T03:38:04.221Z,171.61
2024-05-09T03:39:04.070Z,170.03
2024-05-09T03:40:07.121Z,172.70
2024-05-09T03:41:04.092Z,172.11
2024-05-09T03:42:04.091Z,170.97
2024-05-09T03:43:04.081Z,171.02
2024-05-09T03:44:04.112Z,171.45
2024-05-09T03:45:04.073Z,170.59
2024-05-09T03:46:04.071Z,169.78
2024-05-09T03:47:04.128Z,170.47
2024-05-09T03:48:04.322Z,169.68
2024-05-09T03:49:04.105Z,168.80
2024-05-09T03:50:05.577Z,169.93
2024-05-09T03:51:13.012Z,50.00
2024-05-09T03:52:12.899Z,50.00
2024-05-09T03:53:13.015Z,50.00
2024-05-09T03:54:12.900Z,50.00
2024-05-09T03:55:12.908Z,50.00
2024-05-09T03:56:12.937Z,52.30
2024-05-09T03:57:12.910Z,50.17
2024-05-09T03:58:12.988Z,50.70
2024-05-09T03:59:12.957Z,51.02
2024-05-09T04:00:18.205Z,51.40
2024-05-09T04:01:13.942Z,51.49
2024-05-09T04:02:13.005Z,51.59
2024-05-09T04:03:13.611Z,51.75
2024-05-09T04:04:12.993Z,50.76
2024-05-09T04:05:12.978Z,49.90
2024-05-09T04:06:12.925Z,50.54
2024-05-09T04:07:12.928Z,53.68
2024-05-09T04:08:13.087Z,50.36
2024-05-09T04:09:12.919Z,50.00
2024-05-09T04:10:21.104Z,53.30
2024-05-09T04:11:14.174Z,53.34
2024-05-09T04:12:12.981Z,52.64
2024-05-09T04:13:12.944Z,52.38
2024-05-09T04:14:12.969Z,52.57
2024-05-09T04:15:13.670Z,51.25
2024-05-09T04:16:12.933Z,53.40
2024-05-09T04:17:12.990Z,50.38
2024-05-09T04:18:13.051Z,50.00
2024-05-09T04:19:13.079Z,50.00
2024-05-09T04:20:21.390Z,52.82
2024-05-09T04:21:13.990Z,52.89
2024-05-09T04:22:12.975Z,53.23
2024-05-09T04:23:13.701Z,52.61
2024-05-09T04:24:12.950Z,52.84
2024-05-09T04:25:12.943Z,53.49
2024-05-09T04:26:13.068Z,51.30
2024-05-09T04:27:12.972Z,53.08
2024-05-09T04:28:12.963Z,52.01
2024-05-09T04:29:13.002Z,53.04
2024-05-09T04:30:21.592Z,50.79
2024-05-09T04:31:24.983Z,50.00
2024-05-09T04:32:25.121Z,50.00
2024-05-09T04:33:25.342Z,50.00
2024-05-09T04:34:25.050Z,50.00
2024-05-09T04:35:25.057Z,50.00
2024-05-09T04:36:24.973Z,51.06
2024-05-09T04:37:25.004Z,50.95
2024-05-09T04:38:24.994Z,49.97
2024-05-09T04:39:24.977Z,51.78
2024-05-09T04:40:31.631Z,50.89
2024-05-09T04:41:26.040Z,51.06
2024-05-09T04:42:24.988Z,50.90
2024-05-09T04:43:24.987Z,51.02
2024-05-09T04:44:25.009Z,47.28
2024-05-09T04:45:24.999Z,49.95
2024-05-09T04:46:25.005Z,51.69
2024-05-09T04:47:25.256Z,51.62
2024-05-09T04:48:25.170Z,52.22
2024-05-09T04:49:25.230Z,51.09
2024-05-09T04:50:33.380Z,51.53
2024-05-09T04:51:26.012Z,51.52
2024-05-09T04:52:25.017Z,51.75
2024-05-09T04:53:25.059Z,51.03
2024-05-09T04:54:33.804Z,50.83
2024-05-09T04:55:26.029Z,51.63
2024-05-09T04:56:25.062Z,51.73
2024-05-09T04:57:25.016Z,51.88
2024-05-09T04:58:25.025Z,50.86
2024-05-09T04:59:25.136Z,49.89
2024-05-09T05:00:32.025Z,50.28
2024-05-09T05:01:26.067Z,50.39
2024-05-09T05:02:25.147Z,50.35
2024-05-09T05:03:25.286Z,50.80
2024-05-09T05:04:25.084Z,50.55
2024-05-09T05:05:25.073Z,49.57
2024-05-09T05:06:25.043Z,53.72
2024-05-09T05:07:25.035Z,52.41
2024-05-09T05:08:25.111Z,53.21
2024-05-09T05:09:25.042Z,53.65
2024-05-09T05:10:33.210Z,51.03
2024-05-09T05:11:26.170Z,51.16
2024-05-09T05:12:25.187Z,51.52
2024-05-09T05:13:25.359Z,52.31
2024-05-09T05:14:25.111Z,52.73
2024-05-09T05:15:25.063Z,51.82
2024-05-09T05:16:25.061Z,52.75
2024-05-09T05:17:25.124Z,50.47
2024-05-09T05:18:25.133Z,50.40
2024-05-09T05:19:25.198Z,51.30
2024-05-09T05:20:32.566Z,50.94
2024-05-09T05:21:26.244Z,51.05
2024-05-09T05:22:25.081Z,51.60
2024-05-09T05:23:25.135Z,51.41
2024-05-09T05:24:25.084Z,51.80
2024-05-09T05:25:25.080Z,47.84
2024-05-09T05:26:25.126Z,51.68
2024-05-09T05:27:25.086Z,52.53
2024-05-09T05:28:25.085Z,50.58
2024-05-09T05:29:25.129Z,50.07
2024-05-09T05:30:29.224Z,51.39
2024-05-09T05:31:26.136Z,51.51
2024-05-09T05:32:25.225Z,51.89
2024-05-09T05:33:25.228Z,52.46
2024-05-09T05:34:25.092Z,52.50
2024-05-09T05:35:25.225Z,53.03
2024-05-09T05:36:25.106Z,53.18
2024-05-09T05:37:25.100Z,52.02
2024-05-09T05:38:28.081Z,50.15
2024-05-09T05:39:25.111Z,50.23
2024-05-09T05:40:32.836Z,50.61
2024-05-09T05:41:26.203Z,50.33
2024-05-09T05:42:25.128Z,50.69
2024-05-09T05:43:25.124Z,51.54
2024-05-09T05:44:25.154Z,50.78
2024-05-09T05:45:25.119Z,52.59
2024-05-09T05:46:25.117Z,53.13
2024-05-09T05:47:25.271Z,51.15
2024-05-09T05:48:25.242Z,53.12
2024-05-09T05:49:25.257Z,50.11
2024-05-09T05:50:32.441Z,53.59
2024-05-09T05:51:26.180Z,53.64
2024-05-09T05:52:25.148Z,54.02
2024-05-09T05:53:25.220Z,53.85
2024-05-09T05:54:25.149Z,53.14
2024-05-09T05:55:25.138Z,53.13
2024-05-09T05:56:25.227Z,53.92
2024-05-09T05:57:25.161Z,53.87
2024-05-09T05:58:25.141Z,53.66
2024-05-09T05:59:25.192Z,51.56
2024-05-09T06:00:34.106Z,51.23
2024-05-09T06:01:26.179Z,51.28
2024-05-09T06:02:25.231Z,51.86
2024-05-09T06:03:25.469Z,52.42
2024-05-09T06:04:25.178Z,52.59
2024-05-09T06:05:27.231Z,53.80
2024-05-09T06:06:25.246Z,52.15
2024-05-09T06:07:25.258Z,52.59
2024-05-09T06:08:28.869Z,52.28
2024-05-09T06:09:25.272Z,52.34
2024-05-09T06:10:29.572Z,52.52
2024-05-09T06:11:26.358Z,52.40
2024-05-09T06:12:25.409Z,52.55
2024-05-09T06:13:25.277Z,52.47
2024-05-09T06:14:25.286Z,52.05
2024-05-09T06:15:25.281Z,51.25
2024-05-09T06:16:25.282Z,52.02
2024-05-09T06:17:25.366Z,52.43
2024-05-09T06:18:25.474Z,51.98
2024-05-09T06:19:25.936Z,53.17
2024-05-09T06:20:34.307Z,52.35
2024-05-09T06:21:26.352Z,52.50
2024-05-09T06:22:25.290Z,52.63
2024-05-09T06:23:25.338Z,53.21
2024-05-09T06:24:25.312Z,53.74
2024-05-09T06:25:25.290Z,52.07
2024-05-09T06:26:25.365Z,54.03
2024-05-09T06:27:25.294Z,52.57
2024-05-09T06:28:25.313Z,53.04
2024-05-09T06:29:25.330Z,52.24
2024-05-09T06:30:30.841Z,51.73
2024-05-09T06:31:26.327Z,51.81
2024-05-09T06:32:25.386Z,52.47
2024-05-09T06:33:25.542Z,51.99
2024-05-09T06:34:25.387Z,51.89
2024-05-09T06:35:25.385Z,52.05
2024-05-09T06:36:25.320Z,51.37
2024-05-09T06:37:25.319Z,51.93
2024-05-09T06:38:25.361Z,52.23
2024-05-09T06:39:25.309Z,52.01
2024-05-09T06:40:29.877Z,50.14
2024-05-09T06:41:26.437Z,50.22
2024-05-09T06:42:25.322Z,50.39
2024-05-09T06:43:25.327Z,50.98
2024-05-09T06:44:25.376Z,50.50
2024-05-09T06:45:25.331Z,51.64
2024-05-09T06:46:25.327Z,50.97
2024-05-09T06:47:25.424Z,52.17
2024-05-09T06:48:25.417Z,52.39
2024-05-09T06:49:25.440Z,51.96
2024-05-09T06:50:28.368Z,52.07
2024-05-09T06:51:26.343Z,52.14
2024-05-09T06:52:25.347Z,52.39
2024-05-09T06:53:25.375Z,52.80
2024-05-09T06:54:25.342Z,52.24
2024-05-09T06:55:25.355Z,50.39
2024-05-09T06:56:25.436Z,50.00
2024-05-09T06:57:25.347Z,53.63
2024-05-09T06:58:25.347Z,52.25
2024-05-09T06:59:25.447Z,51.21
2024-05-09T07:00:34.378Z,50.99
2024-05-09T07:01:26.391Z,51.14
2024-05-09T07:02:25.481Z,51.23
2024-05-09T07:03:25.777Z,51.62
2024-05-09T07:04:25.463Z,51.59
2024-05-09T07:05:25.503Z,51.07
2024-05-09T07:06:25.372Z,51.65
2024-05-09T07:07:25.355Z,53.51
2024-05-09T07:08:25.394Z,52.23
2024-05-09T07:09:25.361Z,51.47
2024-05-09T07:10:32.405Z,50.80
2024-05-09T07:11:26.544Z,50.98
2024-05-09T07:12:25.477Z,51.14
2024-05-09T07:13:25.385Z,51.68
2024-05-09T07:14:25.404Z,52.09
2024-05-09T07:15:25.371Z,50.11
2024-05-09T07:16:25.372Z,52.78
2024-05-09T07:17:25.444Z,51.89
2024-05-09T07:18:25.587Z,51.75
2024-05-09T07:19:25.421Z,51.59
2024-05-09T07:20:33.743Z,51.69
2024-05-09T07:21:26.472Z,51.76
2024-05-09T07:22:25.385Z,52.02
2024-05-09T07:23:25.485Z,52.29
2024-05-09T07:24:25.388Z,51.25
2024-05-09T07:25:25.393Z,50.38
2024-05-09T07:26:25.437Z,51.65
2024-05-09T07:27:25.393Z,53.12
2024-05-09T07:28:25.403Z,53.01
2024-05-09T07:29:25.475Z,53.10
2024-05-09T07:30:32.819Z,52.91
2024-05-09T07:31:26.417Z,52.99
2024-05-09T07:32:25.497Z,53.23
2024-05-09T07:33:25.555Z,53.97
2024-05-09T07:34:25.590Z,53.93
2024-05-09T07:35:25.465Z,52.93
2024-05-09T07:36:25.404Z,51.81
2024-05-09T07:37:25.401Z,53.71
2024-05-09T07:38:25.432Z,52.26
2024-05-09T07:39:25.434Z,52.20
2024-05-09T07:40:32.995Z,51.43
2024-05-09T07:41:26.532Z,51.53
2024-05-09T07:42:25.509Z,51.54
2024-05-09T07:43:25.503Z,51.25
2024-05-09T07:44:25.518Z,48.26
2024-05-09T07:45:43.255Z,51.02
2024-05-09T07:47:20.762Z,50.29
2024-05-09T07:50:00.923Z,51.58
2024-05-09T07:53:32.286Z,51.54
2024-05-09T07:53:39.751Z,51.67
2024-05-09T07:54:26.623Z,51.64
2024-05-09T07:55:25.718Z,52.15
2024-05-09T07:56:26.253Z,52.55
2024-05-09T07:57:25.581Z,51.74
2024-05-09T07:58:25.545Z,53.38
2024-05-09T07:59:25.534Z,52.43
2024-05-09T08:00:31.062Z,53.19
2024-05-09T08:01:27.044Z,53.21
2024-05-09T08:02:25.697Z,53.27
2024-05-09T08:03:25.636Z,52.65
2024-05-09T08:04:26.785Z,52.36
2024-05-09T08:05:25.696Z,50.71
2024-05-09T08:06:25.585Z,50.13
2024-05-09T08:07:25.554Z,52.94
2024-05-09T08:08:25.570Z,50.50
2024-05-09T08:09:25.562Z,52.00
2024-05-09T08:10:28.903Z,50.80
2024-05-09T08:11:25.594Z,51.06
2024-05-09T08:12:25.579Z,50.00
2024-05-09T08:13:25.574Z,50.97
2024-05-09T08:14:25.579Z,51.98
2024-05-09T08:15:25.586Z,52.83
2024-05-09T08:16:25.639Z,52.01
2024-05-09T08:17:25.639Z,51.76
2024-05-09T08:18:25.640Z,52.74
2024-05-09T08:19:25.639Z,52.68
2024-05-09T08:20:31.109Z,53.62
2024-05-09T08:21:26.713Z,53.64
2024-05-09T08:22:25.581Z,53.90
2024-05-09T08:23:25.599Z,54.56
2024-05-09T08:24:25.593Z,54.38
2024-05-09T08:25:25.713Z,52.83
2024-05-09T08:26:25.593Z,53.52
2024-05-09T08:27:25.602Z,52.64
2024-05-09T08:28:25.666Z,54.24
2024-05-09T08:29:25.595Z,53.79
2024-05-09T08:30:32.802Z,55.94
2024-05-09T08:31:26.766Z,53.90
2024-05-09T08:32:25.635Z,52.88
2024-05-09T08:33:25.783Z,53.38
2024-05-09T08:34:25.705Z,54.75
2024-05-09T08:35:25.679Z,53.77
2024-05-09T08:36:25.620Z,55.43
2024-05-09T08:37:29.462Z,53.25
2024-05-09T08:38:26.658Z,53.45
2024-05-09T08:39:25.649Z,53.07
2024-05-09T08:40:33.298Z,54.11
2024-05-09T08:41:26.649Z,53.40
2024-05-09T08:42:25.652Z,54.04
2024-05-09T08:43:25.685Z,53.45
2024-05-09T08:44:25.657Z,54.61
2024-05-09T08:45:25.746Z,54.08
2024-05-09T08:46:25.815Z,53.25
2024-05-09T08:47:25.771Z,50.89
2024-05-09T08:48:25.807Z,51.00
2024-05-09T08:49:25.779Z,51.14
2024-05-09T08:50:32.350Z,52.91
2024-05-09T08:51:26.785Z,52.96
2024-05-09T08:52:25.664Z,52.74
2024-05-09T08:53:25.670Z,50.90
2024-05-09T08:54:25.763Z,53.06
2024-05-09T08:55:25.704Z,52.50
2024-05-09T08:56:25.675Z,50.30
2024-05-09T08:57:25.676Z,53.05
2024-05-09T08:58:25.804Z,52.39
2024-05-09T08:59:25.680Z,52.54
2024-05-09T09:00:33.942Z,52.50
2024-05-09T09:01:26.772Z,52.61
2024-05-09T09:02:25.806Z,52.91
2024-05-09T09:03:25.725Z,52.71
2024-05-09T09:04:25.837Z,53.88
2024-05-09T09:05:25.851Z,52.63
2024-05-09T09:06:25.702Z,51.43
2024-05-09T09:07:25.811Z,52.17
2024-05-09T09:08:25.707Z,51.61
2024-05-09T09:09:25.703Z,51.00
2024-05-09T09:10:31.781Z,53.70
2024-05-09T09:11:26.719Z,53.72
2024-05-09T09:12:25.710Z,53.82
2024-05-09T09:13:25.718Z,54.11
2024-05-09T09:14:25.722Z,53.31
2024-05-09T09:15:25.717Z,52.30
2024-05-09T09:16:25.765Z,51.80
2024-05-09T09:17:25.840Z,51.73
2024-05-09T09:18:25.909Z,52.59
2024-05-09T09:19:25.979Z,51.12
2024-05-09T09:20:33.299Z,50.31
2024-05-09T09:21:26.870Z,50.42
2024-05-09T09:22:25.744Z,50.69
2024-05-09T09:23:25.743Z,50.87
2024-05-09T09:24:25.742Z,51.21
2024-05-09T09:25:25.746Z,53.09
2024-05-09T09:26:25.761Z,51.03
2024-05-09T09:27:25.749Z,52.15
2024-05-09T09:28:25.746Z,51.77
2024-05-09T09:29:25.763Z,50.95
2024-05-09T09:30:34.813Z,51.64
2024-05-09T09:31:26.889Z,51.75
2024-05-09T09:32:25.877Z,51.94
2024-05-09T09:33:25.821Z,52.32
2024-05-09T09:34:25.882Z,52.63
2024-05-09T09:35:25.757Z,53.19
2024-05-09T09:36:25.780Z,53.86
2024-05-09T09:37:25.775Z,52.35
2024-05-09T09:38:25.776Z,52.29
2024-05-09T09:39:25.771Z,52.64
2024-05-09T09:40:31.707Z,51.40
2024-05-09T09:41:26.809Z,51.54
2024-05-09T09:42:25.809Z,51.59
2024-05-09T09:43:25.849Z,51.52
2024-05-09T09:44:25.825Z,51.93
2024-05-09T09:45:25.829Z,51.19
2024-05-09T09:46:25.951Z,51.41
2024-05-09T09:47:26.031Z,51.40
2024-05-09T09:48:25.878Z,51.65
2024-05-09T09:49:25.861Z,50.46
2024-05-09T09:50:33.324Z,51.56
2024-05-09T09:51:26.846Z,51.67
2024-05-09T09:52:25.846Z,51.59
2024-05-09T09:53:25.835Z,51.88
2024-05-09T09:54:25.827Z,51.34
2024-05-09T09:55:25.903Z,52.32
2024-05-09T09:56:25.832Z,51.16
2024-05-09T09:57:25.831Z,51.19
2024-05-09T09:58:26.000Z,50.59
2024-05-09T09:59:25.844Z,50.43
2024-05-09T10:00:30.683Z,50.98
2024-05-09T10:01:26.926Z,51.14
2024-05-09T10:02:25.971Z,51.12
2024-05-09T10:03:26.089Z,51.62
2024-05-09T10:04:26.065Z,52.05
2024-05-09T10:05:26.236Z,52.79
2024-05-09T10:06:25.857Z,51.40
2024-05-09T10:07:25.856Z,51.18
2024-05-09T10:08:25.849Z,53.24
2024-05-09T10:09:25.862Z,50.66
2024-05-09T10:10:31.812Z,51.05
2024-05-09T10:11:26.984Z,51.14
2024-05-09T10:12:25.905Z,51.17
2024-05-09T10:13:25.891Z,51.24
2024-05-09T10:14:25.878Z,51.86
2024-05-09T10:15:25.884Z,50.26
2024-05-09T10:16:25.985Z,51.18
2024-05-09T10:17:25.945Z,51.53
2024-05-09T10:18:29.208Z,52.56
2024-05-09T10:19:27.003Z,52.59
2024-05-09T10:20:30.834Z,52.64
2024-05-09T10:21:26.889Z,52.70
2024-05-09T10:22:25.927Z,53.09
2024-05-09T10:23:25.889Z,53.25
2024-05-09T10:24:25.896Z,53.33
2024-05-09T10:25:25.956Z,54.36
2024-05-09T10:26:25.895Z,53.66
2024-05-09T10:27:25.902Z,52.86
2024-05-09T10:28:25.904Z,50.59
2024-05-09T10:29:25.916Z,53.32
2024-05-09T10:30:33.469Z,52.65
2024-05-09T10:31:26.918Z,52.68
2024-05-09T10:32:26.003Z,52.99
2024-05-09T10:33:26.015Z,53.01
2024-05-09T10:34:26.251Z,53.29
2024-05-09T10:35:25.920Z,52.25
2024-05-09T10:36:25.919Z,53.21
2024-05-09T10:37:25.990Z,52.82
2024-05-09T10:38:25.918Z,52.29
2024-05-09T10:39:25.962Z,53.49
2024-05-09T10:40:31.062Z,50.81
2024-05-09T10:41:26.991Z,50.93
2024-05-09T10:42:26.001Z,51.18
2024-05-09T10:43:26.011Z,51.45
2024-05-09T10:44:25.985Z,51.81
2024-05-09T10:45:26.005Z,51.78
2024-05-09T10:46:26.017Z,52.78
2024-05-09T10:47:26.086Z,51.31
2024-05-09T10:48:26.139Z,53.06
2024-05-09T10:49:26.136Z,51.85
2024-05-09T10:50:29.143Z,51.16
2024-05-09T10:51:27.019Z,51.27
2024-05-09T10:52:26.042Z,51.63
2024-05-09T10:53:25.995Z,51.73
2024-05-09T10:54:26.012Z,52.89
2024-05-09T10:55:26.078Z,52.86
2024-05-09T10:56:26.007Z,52.81
2024-05-09T10:57:26.010Z,52.88
2024-05-09T10:58:26.010Z,52.63
2024-05-09T10:59:26.004Z,51.68
2024-05-09T11:00:33.109Z,52.58
2024-05-09T11:01:27.072Z,52.64
2024-05-09T11:02:26.214Z,52.80
2024-05-09T11:03:26.347Z,53.14
2024-05-09T11:04:26.091Z,53.21
2024-05-09T11:05:26.201Z,51.58
2024-05-09T11:06:26.025Z,52.85
2024-05-09T11:07:26.056Z,52.07
2024-05-09T11:08:26.029Z,51.79
2024-05-09T11:09:26.033Z,51.88
2024-05-09T11:10:33.366Z,51.80
2024-05-09T11:11:27.088Z,51.89
2024-05-09T11:12:26.033Z,52.19
2024-05-09T11:13:26.036Z,52.85
2024-05-09T11:14:26.044Z,53.47
2024-05-09T11:15:26.082Z,53.97
2024-05-09T11:16:26.170Z,54.24
2024-05-09T11:17:26.262Z,53.75
2024-05-09T11:18:27.229Z,54.65
2024-05-09T11:19:26.406Z,53.40
2024-05-09T11:20:29.774Z,52.68
2024-05-09T11:21:26.335Z,52.75
2024-05-09T11:22:26.338Z,52.78
2024-05-09T11:23:26.362Z,53.77
2024-05-09T11:24:26.344Z,52.65
2024-05-09T11:25:26.350Z,53.46
2024-05-09T11:26:26.332Z,54.08
2024-05-09T11:27:26.322Z,55.54
2024-05-09T11:28:26.372Z,54.78
2024-05-09T11:29:26.310Z,54.26
2024-05-09T11:30:31.608Z,53.71
2024-05-09T11:31:27.657Z,53.80
2024-05-09T11:32:26.468Z,54.32
2024-05-09T11:33:26.419Z,54.83
2024-05-09T11:34:26.406Z,55.35
2024-05-09T11:35:26.331Z,55.51
2024-05-09T11:36:26.331Z,55.38
2024-05-09T11:37:26.342Z,55.11
2024-05-09T11:38:26.338Z,55.32
2024-05-09T11:39:26.421Z,54.20
2024-05-09T11:40:32.338Z,53.92
2024-05-09T11:41:27.349Z,54.06
2024-05-09T11:42:26.338Z,54.16
2024-05-09T11:43:26.396Z,54.22
2024-05-09T11:44:26.342Z,55.50
2024-05-09T11:45:26.345Z,56.27
2024-05-09T11:46:26.418Z,55.41
2024-05-09T11:47:26.470Z,53.91
2024-05-09T11:48:26.867Z,54.55
2024-05-09T11:49:27.195Z,53.22
2024-05-09T11:50:30.141Z,53.38
2024-05-09T11:51:27.384Z,53.52
2024-05-09T11:52:26.354Z,53.72
2024-05-09T11:53:26.374Z,54.02
2024-05-09T11:54:26.358Z,55.33
2024-05-09T11:55:28.212Z,56.51
2024-05-09T11:56:26.356Z,56.74
2024-05-09T11:57:26.359Z,55.64
2024-05-09T11:58:26.424Z,56.14
2024-05-09T11:59:26.373Z,56.04
2024-05-09T12:00:34.026Z,56.54
2024-05-09T12:01:28.011Z,56.57
2024-05-09T12:02:27.350Z,56.08
2024-05-09T12:03:26.422Z,55.72
2024-05-09T12:04:26.576Z,56.59
2024-05-09T12:05:26.511Z,54.83
2024-05-09T12:06:26.383Z,55.10
2024-05-09T12:07:26.435Z,53.98
2024-05-09T12:08:26.393Z,54.72
2024-05-09T12:09:26.385Z,54.31
2024-05-09T12:10:32.809Z,53.66
2024-05-09T12:11:27.413Z,53.78
2024-05-09T12:12:26.399Z,54.13
2024-05-09T12:13:26.412Z,55.07
2024-05-09T12:14:26.403Z,56.57
2024-05-09T12:15:26.399Z,54.87
2024-05-09T12:16:26.652Z,55.28
2024-05-09T12:17:26.624Z,55.71
2024-05-09T12:18:26.554Z,55.40
2024-05-09T12:19:26.442Z,54.77
2024-05-09T12:20:34.758Z,54.33
2024-05-09T12:21:27.422Z,54.46
2024-05-09T12:22:26.452Z,54.33
2024-05-09T12:23:26.422Z,54.64
2024-05-09T12:24:26.435Z,56.00
2024-05-09T12:25:26.476Z,57.08
2024-05-09T12:26:26.435Z,55.33
2024-05-09T12:27:26.422Z,54.31
2024-05-09T12:28:26.588Z,55.19
2024-05-09T12:29:26.421Z,54.84
2024-05-09T12:30:35.342Z,55.04
2024-05-09T12:31:27.617Z,55.11
2024-05-09T12:32:26.689Z,55.31
2024-05-09T12:33:26.515Z,54.94
2024-05-09T12:34:26.476Z,56.08
2024-05-09T12:35:26.442Z,54.67
2024-05-09T12:36:26.457Z,54.88
2024-05-09T12:37:26.470Z,53.97
2024-05-09T12:38:26.455Z,54.20
2024-05-09T12:39:26.446Z,53.81
2024-05-09T12:40:34.604Z,55.70
2024-05-09T12:41:27.464Z,55.73
2024-05-09T12:42:28.104Z,55.79
2024-05-09T12:43:26.682Z,56.16
2024-05-09T12:44:26.456Z,57.48
2024-05-09T12:45:26.457Z,56.22
2024-05-09T12:46:26.765Z,55.73
2024-05-09T12:47:26.599Z,53.48
2024-05-09T12:48:26.546Z,53.48
2024-05-09T12:49:26.768Z,53.54